createdAt,value
2022-08-18T00:02:12.810Z,61.40
2022-08-18T00:05:19.801Z,61.60
2022-08-18T00:08:27.852Z,61.70
2022-08-18T00:11:41.689Z,61.80
2022-08-18T00:14:29.938Z,61.80
2022-08-18T00:17:36.278Z,61.70
2022-08-18T00:20:27.181Z,62.50
2022-08-18T00:23:33.777Z,61.80
2022-08-18T00:26:22.393Z,61.70
2022-08-18T00:29:23.603Z,61.70
2022-08-18T00:32:33.533Z,62.60
2022-08-18T00:35:29.026Z,61.80
2022-08-18T00:38:29.263Z,62.60
2022-08-18T00:41:36.106Z,61.70
2022-08-18T00:44:43.776Z,61.70
2022-08-18T00:47:50.428Z,62.50
2022-08-18T00:50:49.765Z,61.70
2022-08-18T00:54:01.998Z,61.80
2022-08-18T00:57:09.174Z,61.90
2022-08-18T01:00:11.514Z,61.90
2022-08-18T01:03:24.395Z,62.10
2022-08-18T01:06:26.462Z,62.70
2022-08-18T01:09:33.027Z,62.00
2022-08-18T01:12:46.009Z,61.90
2022-08-18T01:15:54.786Z,62.00
2022-08-18T01:19:18.573Z,62.10
2022-08-18T01:22:12.235Z,62.10
2022-08-18T01:25:19.475Z,62.00
2022-08-18T01:28:07.856Z,61.90
2022-08-18T01:30:58.319Z,62.60
2022-08-18T01:33:46.036Z,61.90
2022-08-18T01:36:36.422Z,61.90
2022-08-18T01:41:27.816Z,62.60
2022-08-18T01:42:33.721Z,62.50
2022-08-18T01:45:22.829Z,62.50
2022-08-18T01:48:10.842Z,62.50
2022-08-18T01:50:59.068Z,61.80
2022-08-18T01:54:05.972Z,61.80
2022-08-18T01:57:14.615Z,61.80
2022-08-18T02:00:18.211Z,61.70
2022-08-18T02:03:27.094Z,61.70
2022-08-18T02:06:33.550Z,61.70
2022-08-18T02:09:40.960Z,61.70
2022-08-18T02:12:29.178Z,61.70
2022-08-18T02:15:18.296Z,61.60
2022-08-18T02:18:47.850Z,61.70
2022-08-18T02:21:56.027Z,62.00
2022-08-18T02:25:02.774Z,61.80
2022-08-18T02:28:09.328Z,61.80
2022-08-18T02:31:07.187Z,61.80
2022-08-18T02:34:17.785Z,61.70
2022-08-18T02:37:24.519Z,61.80
2022-08-18T02:40:33.951Z,61.80
2022-08-18T02:43:42.091Z,61.80
2022-08-18T02:46:52.874Z,61.80
2022-08-18T02:49:59.591Z,61.80
2022-08-18T02:52:50.632Z,62.60
2022-08-18T02:55:57.507Z,62.70
2022-08-18T02:59:06.319Z,61.90
2022-08-18T03:02:14.492Z,62.00
2022-08-18T03:05:20.564Z,62.50
2022-08-18T03:08:27.341Z,63.00
2022-08-18T03:11:18.606Z,63.20
2022-08-18T03:14:25.430Z,63.60
2022-08-18T03:17:35.584Z,64.30
2022-08-18T03:20:38.507Z,65.00
2022-08-18T03:23:45.228Z,66.60
2022-08-18T03:27:08.438Z,66.50
2022-08-18T03:30:15.040Z,67.40
2022-08-18T03:33:22.890Z,68.40
2022-08-18T03:36:31.824Z,68.70
2022-08-18T03:39:38.809Z,70.20
2022-08-18T03:42:45.273Z,69.50
2022-08-18T03:45:54.083Z,70.40
2022-08-18T03:48:53.257Z,69.80
2022-08-18T03:52:01.005Z,70.00
2022-08-18T03:54:49.038Z,70.10
2022-08-18T03:57:58.623Z,70.50
2022-08-18T04:00:46.315Z,71.10
2022-08-18T04:03:56.560Z,70.20
2022-08-18T04:07:05.506Z,70.10
2022-08-18T04:10:19.072Z,70.30
2022-08-18T04:13:07.514Z,70.20
2022-08-18T04:16:14.329Z,70.30
2022-08-18T04:19:25.191Z,70.30
2022-08-18T04:22:34.969Z,70.20
2022-08-18T04:25:41.436Z,70.00
2022-08-18T04:28:48.246Z,69.70
2022-08-18T04:31:54.782Z,70.60
2022-08-18T04:35:03.294Z,69.70
2022-08-18T04:38:10.335Z,69.60
2022-08-18T04:40:58.622Z,70.40
2022-08-18T04:43:48.087Z,69.40
2022-08-18T04:46:40.805Z,69.30
2022-08-18T04:49:28.530Z,69.20
2022-08-18T04:52:41.360Z,69.30
2022-08-18T04:55:30.211Z,69.20
2022-08-18T04:58:18.767Z,68.90
2022-08-18T05:01:07.091Z,68.90
2022-08-18T05:03:55.672Z,68.90
2022-08-18T05:06:43.851Z,68.80
2022-08-18T05:09:33.056Z,68.90
2022-08-18T05:12:44.731Z,69.00
2022-08-18T05:16:09.807Z,69.10
2022-08-18T05:19:21.926Z,69.30
2022-08-18T05:22:31.024Z,69.40
2022-08-18T05:25:40.027Z,69.50
2022-08-18T05:28:46.635Z,70.30
2022-08-18T05:31:37.419Z,69.50
2022-08-18T05:34:45.655Z,69.80
2022-08-18T05:37:51.958Z,70.10
2022-08-18T05:40:47.714Z,70.30
2022-08-18T05:43:35.412Z,70.10
2022-08-18T05:46:39.727Z,70.30
2022-08-18T05:49:27.954Z,70.50
2022-08-18T05:52:17.974Z,70.60
2022-08-18T05:55:25.080Z,71.70
2022-08-18T05:58:16.719Z,70.80
2022-08-18T06:01:05.885Z,71.20
2022-08-18T06:03:56.641Z,71.20
2022-08-18T06:06:47.611Z,72.00
2022-08-18T06:09:55.326Z,71.80
2022-08-18T06:13:03.333Z,71.60
2022-08-18T06:16:15.222Z,71.50
2022-08-18T06:19:29.887Z,71.50
2022-08-18T06:22:48.145Z,71.50
2022-08-18T06:26:06.641Z,71.80
2022-08-18T06:29:24.838Z,72.20
2022-08-18T06:32:44.510Z,72.70
2022-08-18T06:35:54.306Z,72.30
2022-08-18T06:39:06.514Z,73.20
2022-08-18T06:42:14.397Z,72.60
2022-08-18T06:45:25.139Z,72.90
2022-08-18T06:48:45.555Z,73.00
2022-08-18T06:51:53.740Z,73.70
2022-08-18T06:55:05.482Z,72.90
2022-08-18T06:58:22.986Z,73.00
2022-08-18T07:01:31.308Z,73.20
2022-08-18T07:04:43.631Z,72.90
2022-08-18T07:08:14.492Z,73.10
2022-08-18T07:11:25.162Z,73.20
2022-08-18T07:14:33.383Z,73.40
2022-08-18T07:17:44.073Z,74.00
2022-08-18T07:20:55.387Z,74.10
2022-08-18T07:24:23.775Z,73.90
2022-08-18T07:27:45.054Z,73.10
2022-08-18T07:31:15.452Z,72.90
2022-08-18T07:34:25.438Z,74.00
2022-08-18T07:37:39.562Z,74.40
2022-08-18T07:40:51.347Z,74.40
2022-08-18T07:44:07.514Z,74.60
2022-08-18T07:47:20.484Z,74.70
2022-08-18T07:50:57.624Z,75.60
2022-08-18T07:54:03.001Z,74.80
2022-08-18T07:57:19.674Z,74.90
2022-08-18T08:00:57.735Z,75.80
2022-08-18T08:04:03.092Z,75.70
2022-08-18T08:07:28.724Z,75.70
2022-08-18T08:10:41.850Z,74.80
2022-08-18T08:14:02.407Z,76.00
2022-08-18T08:17:17.185Z,75.30
2022-08-18T08:20:32.457Z,75.40
2022-08-18T08:23:45.994Z,75.50
2022-08-18T08:26:58.501Z,75.40
2022-08-18T08:30:08.588Z,75.50
2022-08-18T08:33:21.545Z,75.70
2022-08-18T08:36:31.909Z,75.50
2022-08-18T08:39:42.416Z,75.90
2022-08-18T08:42:54.662Z,75.50
2022-08-18T08:46:08.189Z,75.70
2022-08-18T08:49:24.749Z,75.30
2022-08-18T08:52:36.285Z,75.10
2022-08-18T08:55:46.934Z,74.70
2022-08-18T08:58:58.055Z,74.80
2022-08-18T09:02:47.264Z,75.20
2022-08-18T09:06:13.546Z,74.80
2022-08-18T09:09:36.118Z,75.60
2022-08-18T09:12:51.015Z,74.60
2022-08-18T09:16:13.965Z,74.50
2022-08-18T09:19:43.384Z,74.40
2022-08-18T09:22:53.955Z,75.00
2022-08-18T09:26:23.118Z,74.10
2022-08-18T09:29:50.483Z,74.00
2022-08-18T09:33:04.816Z,73.70
2022-08-18T09:36:34.921Z,74.10
2022-08-18T09:40:11.362Z,73.30
2022-08-18T09:43:29.963Z,73.20
2022-08-18T09:46:55.833Z,73.30
2022-08-18T09:50:38.497Z,73.30
2022-08-18T09:54:14.366Z,73.30
2022-08-18T09:57:24.387Z,73.20
2022-08-18T10:00:33.660Z,73.10
2022-08-18T10:03:42.938Z,73.20
2022-08-18T10:06:52.138Z,73.10
2022-08-18T10:10:59.934Z,73.00
2022-08-18T10:13:51.574Z,73.10
2022-08-18T10:17:23.364Z,70.80
2022-08-18T10:20:37.570Z,70.30
2022-08-18T10:27:36.913Z,68.30
2022-08-18T10:31:06.355Z,68.50
2022-08-18T10:37:49.188Z,66.30
2022-08-18T10:44:33.185Z,62.60
2022-08-18T10:47:42.958Z,63.30
2022-08-18T10:50:59.404Z,63.90
2022-08-18T10:54:11.611Z,64.20
2022-08-18T10:57:30.290Z,64.20
2022-08-18T11:00:52.242Z,64.90
2022-08-18T11:04:14.113Z,64.50
2022-08-18T11:07:34.053Z,65.00
2022-08-18T11:11:06.553Z,64.90
2022-08-18T11:14:35.292Z,65.00
2022-08-18T11:17:49.119Z,63.00
2022-08-18T11:21:32.696Z,62.00
2022-08-18T11:24:44.923Z,61.80
2022-08-18T11:27:54.457Z,61.80
2022-08-18T11:34:36.176Z,62.20
2022-08-18T11:37:49.080Z,62.60
2022-08-18T11:41:13.190Z,62.50
2022-08-18T11:44:24.615Z,62.10
2022-08-18T11:47:35.408Z,62.80
2022-08-18T11:50:54.590Z,61.80
2022-08-18T11:54:05.015Z,61.00
2022-08-18T11:57:46.902Z,60.60
2022-08-18T12:00:54.569Z,61.20
2022-08-18T12:04:15.714Z,61.80
2022-08-18T12:07:06.242Z,59.90
2022-08-18T12:10:18.061Z,59.60
2022-08-18T12:13:06.778Z,60.30
2022-08-18T12:16:10.078Z,60.70
2022-08-18T12:18:58.346Z,59.60
2022-08-18T12:21:54.769Z,59.20
2022-08-18T12:25:02.350Z,58.90
2022-08-18T12:27:49.927Z,59.30
2022-08-18T12:30:37.824Z,58.70
2022-08-18T12:36:38.518Z,58.30
2022-08-18T12:39:29.548Z,56.60
2022-08-18T12:42:17.699Z,56.40
2022-08-18T12:45:08.836Z,56.50
2022-08-18T12:47:56.665Z,56.30
2022-08-18T12:50:54.266Z,56.20
2022-08-18T12:54:05.175Z,56.10
2022-08-18T12:57:27.743Z,56.30
2022-08-18T13:00:49.783Z,56.50
2022-08-18T13:04:11.029Z,56.00
2022-08-18T13:07:21.165Z,56.10
2022-08-18T13:10:43.313Z,56.60
2022-08-18T13:13:57.057Z,56.00
2022-08-18T13:17:05.552Z,56.00
2022-08-18T13:20:18.454Z,56.30
2022-08-18T13:23:27.178Z,56.30
2022-08-18T13:26:37.055Z,56.50
2022-08-18T13:29:46.651Z,56.00
2022-08-18T13:33:02.662Z,55.90
2022-08-18T13:36:14.098Z,57.00
2022-08-18T13:39:23.217Z,56.50
2022-08-18T13:42:50.395Z,56.50
2022-08-18T13:46:01.407Z,57.00
2022-08-18T13:49:09.716Z,57.50
2022-08-18T13:52:33.453Z,57.40
2022-08-18T13:55:43.526Z,57.30
2022-08-18T13:58:53.331Z,57.50
2022-08-18T14:02:05.896Z,57.50
2022-08-18T14:05:18.586Z,58.00
2022-08-18T14:08:29.085Z,57.30
2022-08-18T14:11:18.700Z,57.50
2022-08-18T14:14:06.473Z,57.70
2022-08-18T14:16:54.263Z,58.20
2022-08-18T14:20:03.677Z,58.30
2022-08-18T14:23:09.693Z,58.20
2022-08-18T14:26:15.346Z,58.10
2022-08-18T14:29:46.579Z,58.80
2022-08-18T14:32:53.269Z,58.00
2022-08-18T14:36:06.158Z,58.80
2022-08-18T14:39:15.846Z,58.80
2022-08-18T14:42:41.122Z,59.00
2022-08-18T14:45:49.211Z,59.10
2022-08-18T14:48:56.002Z,59.40
2022-08-18T14:52:04.539Z,59.40
2022-08-18T14:55:18.117Z,59.40
2022-08-18T14:58:28.764Z,59.40
2022-08-18T15:01:35.716Z,59.50
2022-08-18T15:04:56.449Z,59.40
2022-08-18T15:08:06.249Z,59.30
2022-08-18T15:10:54.355Z,59.10
2022-08-18T15:14:01.516Z,59.00
2022-08-18T15:17:13.444Z,59.00
2022-08-18T15:20:02.756Z,59.30
2022-08-18T15:23:28.448Z,59.40
2022-08-18T15:26:35.809Z,59.70
2022-08-18T15:29:44.844Z,59.50
2022-08-18T15:32:51.773Z,59.70
2022-08-18T15:36:01.303Z,59.80
2022-08-18T15:39:10.118Z,59.80
2022-08-18T15:42:17.456Z,59.80
2022-08-18T15:45:26.674Z,59.90
2022-08-18T15:48:33.641Z,59.90
2022-08-18T15:51:42.413Z,60.00
2022-08-18T15:54:57.011Z,60.00
2022-08-18T15:58:10.945Z,60.10
2022-08-18T16:01:30.059Z,60.90
2022-08-18T16:04:39.419Z,60.90
2022-08-18T16:07:47.649Z,60.90
2022-08-18T16:10:40.668Z,61.00
2022-08-18T16:13:46.912Z,60.20
2022-08-18T16:16:55.210Z,60.20
2022-08-18T16:19:46.257Z,60.30
2022-08-18T16:22:53.254Z,61.00
2022-08-18T16:25:42.305Z,61.50
2022-08-18T16:28:34.893Z,60.40
2022-08-18T16:31:26.093Z,60.20
2022-08-18T16:34:14.500Z,60.30
2022-08-18T16:37:02.577Z,59.80
2022-08-18T16:39:50.755Z,59.80
2022-08-18T16:42:39.768Z,59.70
2022-08-18T16:45:27.542Z,59.70
2022-08-18T16:48:16.986Z,60.10
2022-08-18T16:51:05.005Z,59.90
2022-08-18T16:53:54.502Z,59.80
2022-08-18T16:56:42.125Z,59.90
2022-08-18T17:00:07.434Z,60.60
2022-08-18T17:03:31.143Z,60.10
2022-08-18T17:06:38.125Z,60.00
2022-08-18T17:09:53.976Z,60.20
2022-08-18T17:13:00.700Z,60.70
2022-08-18T17:16:15.085Z,60.50
2022-08-18T17:19:21.745Z,60.50
2022-08-18T17:22:28.471Z,60.50
2022-08-18T17:25:35.253Z,60.40
2022-08-18T17:28:50.178Z,61.10
2022-08-18T17:32:00.491Z,60.30
2022-08-18T17:35:09.192Z,60.30
2022-08-18T17:38:19.402Z,60.30
2022-08-18T17:41:07.882Z,60.30
2022-08-18T17:44:14.923Z,60.30
2022-08-18T17:47:26.705Z,61.10
2022-08-18T17:50:52.988Z,60.50
2022-08-18T17:54:01.043Z,60.50
2022-08-18T17:57:09.065Z,61.20
2022-08-18T18:00:17.638Z,60.40
2022-08-18T18:03:26.121Z,60.40
2022-08-18T18:06:29.764Z,60.30
2022-08-18T18:09:30.912Z,60.30
2022-08-18T18:12:38.670Z,61.20
2022-08-18T18:15:47.409Z,60.60
2022-08-18T18:19:01.135Z,60.50
2022-08-18T18:22:10.482Z,60.60
2022-08-18T18:25:34.352Z,61.40
2022-08-18T18:28:41.374Z,60.70
2022-08-18T18:31:58.332Z,60.70
2022-08-18T18:35:14.073Z,60.80
2022-08-18T18:38:26.154Z,61.60
2022-08-18T18:41:25.334Z,60.90
2022-08-18T18:44:28.868Z,61.10
2022-08-18T18:47:34.861Z,61.10
2022-08-18T18:50:53.113Z,61.10
2022-08-18T18:54:07.192Z,61.20
2022-08-18T18:57:15.129Z,61.20
2022-08-18T19:00:11.674Z,61.60
2022-08-18T19:03:20.281Z,62.20
2022-08-18T19:06:29.358Z,61.40
2022-08-18T19:09:39.529Z,61.30
2022-08-18T19:12:51.166Z,61.40
2022-08-18T19:16:00.295Z,61.40
2022-08-18T19:19:35.494Z,61.50
2022-08-18T19:22:27.321Z,61.50
2022-08-18T19:25:35.142Z,61.70
2022-08-18T19:29:12.629Z,61.80
2022-08-18T19:31:56.781Z,62.10
2022-08-18T19:35:04.549Z,62.70
2022-08-18T19:38:22.833Z,62.80
2022-08-18T19:41:11.430Z,63.20
2022-08-18T19:44:05.070Z,63.60
2022-08-18T19:46:54.118Z,63.80
2022-08-18T19:49:48.403Z,64.00
2022-08-18T19:53:05.353Z,64.10
2022-08-18T19:56:04.557Z,64.40
2022-08-18T19:59:15.499Z,65.10
2022-08-18T20:02:17.436Z,65.20
2022-08-18T20:05:15.403Z,66.10
2022-08-18T20:08:21.660Z,65.40
2022-08-18T20:11:41.591Z,65.50
2022-08-18T20:14:30.264Z,66.60
2022-08-18T20:17:20.743Z,66.10
2022-08-18T20:20:18.192Z,66.30
2022-08-18T20:23:30.381Z,66.60
2022-08-18T20:26:41.117Z,68.60
2022-08-18T20:29:47.807Z,68.90
2022-08-18T20:32:36.337Z,68.80
2022-08-18T20:35:46.893Z,68.70
2022-08-18T20:38:54.482Z,69.20
2022-08-18T20:42:02.779Z,69.10
2022-08-18T20:45:11.901Z,69.10
2022-08-18T20:48:24.616Z,69.10
2022-08-18T20:51:12.782Z,69.20
2022-08-18T20:54:26.293Z,68.90
2022-08-18T20:57:35.609Z,69.20
2022-08-18T21:00:27.478Z,68.90
2022-08-18T21:03:16.164Z,68.80
2022-08-18T21:06:04.442Z,68.70
2022-08-18T21:08:53.325Z,69.10
2022-08-18T21:11:43.026Z,70.00
2022-08-18T21:14:32.489Z,69.60
2022-08-18T21:17:21.341Z,69.40
2022-08-18T21:20:10.637Z,69.20
2022-08-18T21:23:23.606Z,69.30
2022-08-18T21:26:23.545Z,68.80
2022-08-18T21:29:13.969Z,69.30
2022-08-18T21:32:24.344Z,69.50
2022-08-18T21:35:32.915Z,69.70
2022-08-18T21:38:26.594Z,69.50
2022-08-18T21:41:25.581Z,69.40
2022-08-18T21:44:38.403Z,70.70
2022-08-18T21:47:50.643Z,70.80
2022-08-18T21:50:58.742Z,70.70
2022-08-18T21:54:07.048Z,70.50
2022-08-18T21:57:21.671Z,70.80
2022-08-18T22:00:23.499Z,71.10
2022-08-18T22:03:22.809Z,71.40
2022-08-18T22:06:17.191Z,71.70
2022-08-18T22:09:29.382Z,71.70
2022-08-18T22:12:42.074Z,71.70
2022-08-18T22:15:37.528Z,72.40
2022-08-18T22:18:41.186Z,71.80
2022-08-18T22:21:33.501Z,72.30
2022-08-18T22:24:21.639Z,72.60
2022-08-18T22:27:12.243Z,72.70
2022-08-18T22:30:21.529Z,72.80
2022-08-18T22:33:28.334Z,72.70
2022-08-18T22:36:39.021Z,73.00
2022-08-18T22:39:47.173Z,74.20
2022-08-18T22:42:54.136Z,73.00
2022-08-18T22:46:01.896Z,72.40
2022-08-18T22:48:50.090Z,73.10
2022-08-18T22:51:59.402Z,72.70
2022-08-18T22:55:08.522Z,71.90
2022-08-18T22:57:57.914Z,71.80
2022-08-18T23:00:47.979Z,71.60
2022-08-18T23:03:42.343Z,71.50
2022-08-18T23:06:30.214Z,71.30
2022-08-18T23:09:20.317Z,71.40
2022-08-18T23:12:10.494Z,71.40
2022-08-18T23:14:58.865Z,71.60
2022-08-18T23:17:46.854Z,71.60
2022-08-18T23:20:37.314Z,71.30
2022-08-18T23:23:28.395Z,71.50
2022-08-18T23:26:17.393Z,71.50
2022-08-18T23:29:23.408Z,72.40
2022-08-18T23:32:23.584Z,71.70
2022-08-18T23:35:23.563Z,71.80
2022-08-18T23:38:23.746Z,71.80
2022-08-18T23:41:24.011Z,72.60
2022-08-18T23:44:27.335Z,71.90
2022-08-18T23:47:34.694Z,72.10
2022-08-18T23:50:23.506Z,72.20
2022-08-18T23:53:23.561Z,72.40
2022-08-18T23:56:25.834Z,72.60
2022-08-18T23:59:14.061Z,72.50
